sensor_id;sensor_type;location;lat;lon;timestamp;pressure;altitude;pressure_sealevel;temperature;humidity
19596;BME280;9945;46.010;8.946;2023-05-23T00:00:13;97161.03;;;20.17;89.87
19596;BME280;9945;46.010;8.946;2023-05-23T00:02:40;97159.41;;;20.22;88.65
19596;BME280;9945;46.010;8.946;2023-05-23T00:05:07;97156.56;;;20.11;88.50
19596;BME280;9945;46.010;8.946;2023-05-23T00:07:34;97158.41;;;20.10;89.43
19596;BME280;9945;46.010;8.946;2023-05-23T00:10:02;97153.31;;;20.15;88.55
19596;BME280;9945;46.010;8.946;2023-05-23T00:12:29;97159.44;;;20.16;88.62
19596;BME280;9945;46.010;8.946;2023-05-23T00:14:58;97149.44;;;20.05;90.03
19596;BME280;9945;46.010;8.946;2023-05-23T00:17:25;97149.66;;;20.03;89.29
19596;BME280;9945;46.010;8.946;2023-05-23T00:19:52;97147.63;;;19.92;91.23
19596;BME280;9945;46.010;8.946;2023-05-23T00:22:20;97143.50;;;20.02;90.63
19596;BME280;9945;46.010;8.946;2023-05-23T00:24:47;97143.28;;;20.11;89.05
19596;BME280;9945;46.010;8.946;2023-05-23T00:27:15;97139.03;;;19.96;90.31
19596;BME280;9945;46.010;8.946;2023-05-23T00:29:42;97143.31;;;19.91;89.95
19596;BME280;9945;46.010;8.946;2023-05-23T00:32:08;97142.06;;;20.00;88.96
19596;BME280;9945;46.010;8.946;2023-05-23T00:34:35;97141.94;;;19.88;90.95
19596;BME280;9945;46.010;8.946;2023-05-23T00:37:04;97132.69;;;19.97;89.78
19596;BME280;9945;46.010;8.946;2023-05-23T00:39:31;97128.63;;;19.95;90.38
19596;BME280;9945;46.010;8.946;2023-05-23T00:41:58;97126.81;;;19.89;91.30
19596;BME280;9945;46.010;8.946;2023-05-23T00:44:31;97132.69;;;19.91;90.87
19596;BME280;9945;46.010;8.946;2023-05-23T00:46:58;97130.03;;;19.91;90.37
19596;BME280;9945;46.010;8.946;2023-05-23T00:49:25;97132.69;;;19.91;89.24
19596;BME280;9945;46.010;8.946;2023-05-23T00:51:53;97132.94;;;19.89;88.66
19596;BME280;9945;46.010;8.946;2023-05-23T00:54:24;97127.19;;;19.86;89.54
19596;BME280;9945;46.010;8.946;2023-05-23T00:56:52;97122.31;;;19.89;89.37
19596;BME280;9945;46.010;8.946;2023-05-23T00:59:20;97127.63;;;19.76;88.58
19596;BME280;9945;46.010;8.946;2023-05-23T01:01:49;97120.06;;;19.80;88.03
19596;BME280;9945;46.010;8.946;2023-05-23T01:04:17;97114.31;;;19.83;86.83
19596;BME280;9945;46.010;8.946;2023-05-23T01:06:45;97123.72;;;19.85;85.94
19596;BME280;9945;46.010;8.946;2023-05-23T01:09:14;97122.91;;;19.85;86.79
19596;BME280;9945;46.010;8.946;2023-05-23T01:11:44;97119.66;;;19.89;86.92
19596;BME280;9945;46.010;8.946;2023-05-23T01:14:21;97117.19;;;19.88;87.31
19596;BME280;9945;46.010;8.946;2023-05-23T01:16:55;97120.47;;;19.90;86.64
19596;BME280;9945;46.010;8.946;2023-05-23T01:19:39;97105.34;;;19.90;87.25
19596;BME280;9945;46.010;8.946;2023-05-23T01:22:17;97098.00;;;19.66;86.70
19596;BME280;9945;46.010;8.946;2023-05-23T01:24:53;97098.19;;;19.78;86.78
19596;BME280;9945;46.010;8.946;2023-05-23T01:27:24;97094.75;;;19.71;85.78
19596;BME280;9945;46.010;8.946;2023-05-23T01:29:56;97104.53;;;19.77;86.49
19596;BME280;9945;46.010;8.946;2023-05-23T01:32:24;97101.69;;;19.78;85.40
19596;BME280;9945;46.010;8.946;2023-05-23T01:34:52;97098.03;;;19.73;86.58
19596;BME280;9945;46.010;8.946;2023-05-23T01:37:19;97100.50;;;19.54;86.29
19596;BME280;9945;46.010;8.946;2023-05-23T01:39:46;97099.06;;;19.52;87.03
19596;BME280;9945;46.010;8.946;2023-05-23T01:42:13;97102.53;;;19.59;87.45
19596;BME280;9945;46.010;8.946;2023-05-23T01:44:40;97099.25;;;19.57;87.60
19596;BME280;9945;46.010;8.946;2023-05-23T01:47:09;97094.56;;;19.46;87.98
19596;BME280;9945;46.010;8.946;2023-05-23T01:49:37;97089.44;;;19.57;87.16
19596;BME280;9945;46.010;8.946;2023-05-23T01:52:05;97086.63;;;19.39;87.13
19596;BME280;9945;46.010;8.946;2023-05-23T01:54:35;97088.44;;;19.32;87.75
19596;BME280;9945;46.010;8.946;2023-05-23T01:57:03;97087.41;;;19.40;88.35
19596;BME280;9945;46.010;8.946;2023-05-23T01:59:31;97083.75;;;19.34;88.92
19596;BME280;9945;46.010;8.946;2023-05-23T02:01:57;97089.06;;;19.34;89.42
19596;BME280;9945;46.010;8.946;2023-05-23T02:04:26;97076.78;;;19.40;89.33
19596;BME280;9945;46.010;8.946;2023-05-23T02:06:53;97083.34;;;19.37;88.57
19596;BME280;9945;46.010;8.946;2023-05-23T02:09:20;97086.41;;;19.34;89.44
19596;BME280;9945;46.010;8.946;2023-05-23T02:11:47;97088.03;;;19.35;89.39
19596;BME280;9945;46.010;8.946;2023-05-23T02:14:14;97083.97;;;19.39;89.17
19596;BME280;9945;46.010;8.946;2023-05-23T02:16:40;97078.25;;;19.29;88.76
19596;BME280;9945;46.010;8.946;2023-05-23T02:19:07;97078.22;;;19.36;88.54
19596;BME280;9945;46.010;8.946;2023-05-23T02:21:36;97078.84;;;19.38;88.34
19596;BME280;9945;46.010;8.946;2023-05-23T02:24:03;97082.09;;;19.33;88.62
19596;BME280;9945;46.010;8.946;2023-05-23T02:26:30;97072.91;;;19.36;89.26
19596;BME280;9945;46.010;8.946;2023-05-23T02:28:57;97078.84;;;19.38;88.45
19596;BME280;9945;46.010;8.946;2023-05-23T02:31:24;97084.75;;;19.33;88.32
19596;BME280;9945;46.010;8.946;2023-05-23T02:33:52;97074.97;;;19.34;88.47
19596;BME280;9945;46.010;8.946;2023-05-23T02:36:18;97077.22;;;19.30;88.39
19596;BME280;9945;46.010;8.946;2023-05-23T02:38:47;97071.69;;;19.32;88.36
19596;BME280;9945;46.010;8.946;2023-05-23T02:41:14;97075.16;;;19.32;88.79
19596;BME280;9945;46.010;8.946;2023-05-23T02:43:41;97070.69;;;19.19;89.26
19596;BME280;9945;46.010;8.946;2023-05-23T02:46:07;97077.22;;;19.23;89.68
19596;BME280;9945;46.010;8.946;2023-05-23T02:48:34;97078.84;;;19.24;90.30
19596;BME280;9945;46.010;8.946;2023-05-23T02:51:01;97078.84;;;19.18;89.05
19596;BME280;9945;46.010;8.946;2023-05-23T02:53:28;97072.72;;;19.17;89.70
19596;BME280;9945;46.010;8.946;2023-05-23T02:55:56;97071.31;;;19.08;89.72
19596;BME280;9945;46.010;8.946;2023-05-23T02:58:23;97081.31;;;19.13;89.14
19596;BME280;9945;46.010;8.946;2023-05-23T03:00:50;97080.91;;;19.16;90.01
19596;BME280;9945;46.010;8.946;2023-05-23T03:03:16;97074.19;;;19.13;89.46
19596;BME280;9945;46.010;8.946;2023-05-23T03:05:43;97074.38;;;19.12;89.37
19596;BME280;9945;46.010;8.946;2023-05-23T03:08:10;97076.63;;;19.02;89.70
19596;BME280;9945;46.010;8.946;2023-05-23T03:10:37;97071.09;;;19.10;89.46
19596;BME280;9945;46.010;8.946;2023-05-23T03:13:05;97073.56;;;19.05;89.09
19596;BME280;9945;46.010;8.946;2023-05-23T03:15:32;97077.25;;;19.04;88.82
19596;BME280;9945;46.010;8.946;2023-05-23T03:17:59;97073.97;;;19.08;89.30
19596;BME280;9945;46.010;8.946;2023-05-23T03:20:26;97069.88;;;19.06;89.54
19596;BME280;9945;46.010;8.946;2023-05-23T03:22:53;97071.72;;;19.12;89.24
19596;BME280;9945;46.010;8.946;2023-05-23T03:25:19;97078.25;;;19.09;89.79
19596;BME280;9945;46.010;8.946;2023-05-23T03:27:46;97083.16;;;18.93;90.94
19596;BME280;9945;46.010;8.946;2023-05-23T03:30:15;97079.28;;;19.02;89.86
19596;BME280;9945;46.010;8.946;2023-05-23T03:32:41;97076.63;;;19.02;89.64
19596;BME280;9945;46.010;8.946;2023-05-23T03:35:09;97081.31;;;18.93;90.87
19596;BME280;9945;46.010;8.946;2023-05-23T03:37:35;97080.06;;;18.89;90.96
19596;BME280;9945;46.010;8.946;2023-05-23T03:40:03;97086.81;;;18.78;91.70
19596;BME280;9945;46.010;8.946;2023-05-23T03:42:31;97080.63;;;18.51;93.75
19596;BME280;9945;46.010;8.946;2023-05-23T03:44:58;97088.16;;;18.48;94.03
19596;BME280;9945;46.010;8.946;2023-05-23T03:47:26;97092.63;;;18.47;93.56
19596;BME280;9945;46.010;8.946;2023-05-23T03:49:53;97096.19;;;18.61;89.60
19596;BME280;9945;46.010;8.946;2023-05-23T03:52:20;97090.69;;;18.63;89.84
19596;BME280;9945;46.010;8.946;2023-05-23T03:54:46;97093.72;;;18.60;90.11
19596;BME280;9945;46.010;8.946;2023-05-23T03:57:13;97096.78;;;18.63;89.77
19596;BME280;9945;46.010;8.946;2023-05-23T03:59:40;97100.03;;;18.59;89.43
19596;BME280;9945;46.010;8.946;2023-05-23T04:02:07;97105.34;;;18.72;89.21
19596;BME280;9945;46.010;8.946;2023-05-23T04:04:35;97102.94;;;18.77;88.20
19596;BME280;9945;46.010;8.946;2023-05-23T04:07:04;97104.38;;;18.79;87.01
19596;BME280;9945;46.010;8.946;2023-05-23T04:09:31;97105.16;;;18.73;87.67
19596;BME280;9945;46.010;8.946;2023-05-23T04:11:58;97103.94;;;18.63;88.89
19596;BME280;9945;46.010;8.946;2023-05-23T04:14:24;97109.63;;;18.60;88.73
19596;BME280;9945;46.010;8.946;2023-05-23T04:16:52;97105.97;;;18.67;89.00
19596;BME280;9945;46.010;8.946;2023-05-23T04:19:18;97101.50;;;18.68;89.38
19596;BME280;9945;46.010;8.946;2023-05-23T04:21:47;97110.66;;;18.59;89.33
19596;BME280;9945;46.010;8.946;2023-05-23T04:24:13;97108.63;;;18.67;90.05
19596;BME280;9945;46.010;8.946;2023-05-23T04:26:40;97101.28;;;18.63;89.66
19596;BME280;9945;46.010;8.946;2023-05-23T04:29:07;97109.84;;;18.58;89.54
19596;BME280;9945;46.010;8.946;2023-05-23T04:31:36;97108.25;;;18.70;89.08
19596;BME280;9945;46.010;8.946;2023-05-23T04:34:03;97111.72;;;18.71;89.50
19596;BME280;9945;46.010;8.946;2023-05-23T04:36:30;97109.66;;;18.66;89.65
19596;BME280;9945;46.010;8.946;2023-05-23T04:38:58;97111.91;;;18.69;89.61
19596;BME280;9945;46.010;8.946;2023-05-23T04:41:25;97109.59;;;18.53;91.02
19596;BME280;9945;46.010;8.946;2023-05-23T04:43:52;97106.72;;;18.48;91.28
19596;BME280;9945;46.010;8.946;2023-05-23T04:46:19;97113.03;;;18.47;92.57
19596;BME280;9945;46.010;8.946;2023-05-23T04:48:51;97111.44;;;18.52;91.94
19596;BME280;9945;46.010;8.946;2023-05-23T04:51:18;97115.09;;;18.45;92.59
19596;BME280;9945;46.010;8.946;2023-05-23T04:53:46;97120.78;;;18.48;92.36
19596;BME280;9945;46.010;8.946;2023-05-23T04:56:14;97124.25;;;18.49;93.07
19596;BME280;9945;46.010;8.946;2023-05-23T04:58:45;97118.75;;;18.44;93.70
19596;BME280;9945;46.010;8.946;2023-05-23T05:01:12;97120.16;;;18.46;93.27
19596;BME280;9945;46.010;8.946;2023-05-23T05:03:40;97115.13;;;18.58;92.21
19596;BME280;9945;46.010;8.946;2023-05-23T05:06:07;97117.41;;;18.68;92.13
19596;BME280;9945;46.010;8.946;2023-05-23T05:08:34;97122.91;;;18.73;92.05
19596;BME280;9945;46.010;8.946;2023-05-23T05:11:01;97116.00;;;18.78;92.45
19596;BME280;9945;46.010;8.946;2023-05-23T05:13:29;97125.78;;;18.78;92.95
19596;BME280;9945;46.010;8.946;2023-05-23T05:15:56;97121.31;;;18.78;93.25
19596;BME280;9945;46.010;8.946;2023-05-23T05:18:24;97122.75;;;18.94;92.50
19596;BME280;9945;46.010;8.946;2023-05-23T05:20:51;97118.88;;;18.97;92.22
19596;BME280;9945;46.010;8.946;2023-05-23T05:23:18;97123.78;;;19.00;93.55
19596;BME280;9945;46.010;8.946;2023-05-23T05:25:45;97117.03;;;18.97;92.31
19596;BME280;9945;46.010;8.946;2023-05-23T05:28:12;97106.63;;;19.09;91.97
19596;BME280;9945;46.010;8.946;2023-05-23T05:30:40;97115.19;;;19.24;90.29
19596;BME280;9945;46.010;8.946;2023-05-23T05:33:07;97115.41;;;19.36;88.05
19596;BME280;9945;46.010;8.946;2023-05-23T05:35:34;97118.88;;;19.36;88.69
19596;BME280;9945;46.010;8.946;2023-05-23T05:38:03;97119.06;;;19.41;88.55
19596;BME280;9945;46.010;8.946;2023-05-23T05:40:30;97117.03;;;19.43;86.65
19596;BME280;9945;46.010;8.946;2023-05-23T05:42:57;97115.00;;;19.52;86.63
19596;BME280;9945;46.010;8.946;2023-05-23T05:45:24;97110.72;;;19.64;84.77
19596;BME280;9945;46.010;8.946;2023-05-23T05:47:52;97113.13;;;19.79;82.50
19596;BME280;9945;46.010;8.946;2023-05-23T05:50:19;97116.56;;;19.86;83.38
19596;BME280;9945;46.010;8.946;2023-05-23T05:52:46;97108.81;;;19.78;83.01
19596;BME280;9945;46.010;8.946;2023-05-23T05:55:12;97109.25;;;19.81;83.15
19596;BME280;9945;46.010;8.946;2023-05-23T05:57:40;97113.31;;;19.84;83.11
19596;BME280;9945;46.010;8.946;2023-05-23T06:00:08;97110.25;;;19.87;81.99
19596;BME280;9945;46.010;8.946;2023-05-23T06:02:38;97106.16;;;19.78;82.74
19596;BME280;9945;46.010;8.946;2023-05-23T06:05:07;97104.31;;;19.85;82.12
19596;BME280;9945;46.010;8.946;2023-05-23T06:07:36;97102.88;;;19.89;82.84
19596;BME280;9945;46.010;8.946;2023-05-23T06:10:04;97096.94;;;19.87;83.05
19596;BME280;9945;46.010;8.946;2023-05-23T06:12:32;97105.09;;;19.92;83.29
19596;BME280;9945;46.010;8.946;2023-05-23T06:14:59;97103.25;;;19.92;83.48
19596;BME280;9945;46.010;8.946;2023-05-23T06:17:26;97101.38;;;20.06;80.89
19596;BME280;9945;46.010;8.946;2023-05-23T06:19:53;97099.66;;;20.25;79.97
19596;BME280;9945;46.010;8.946;2023-05-23T06:22:21;97095.56;;;20.29;79.69
19596;BME280;9945;46.010;8.946;2023-05-23T06:24:48;97097.41;;;20.28;80.14
19596;BME280;9945;46.010;8.946;2023-05-23T06:27:15;97092.88;;;20.35;79.51
19596;BME280;9945;46.010;8.946;2023-05-23T06:29:42;97094.38;;;20.18;80.95
19596;BME280;9945;46.010;8.946;2023-05-23T06:32:08;97098.41;;;20.27;80.94
19596;BME280;9945;46.010;8.946;2023-05-23T06:34:35;97095.75;;;20.27;79.93
19596;BME280;9945;46.010;8.946;2023-05-23T06:37:02;97097.81;;;20.32;78.75
19596;BME280;9945;46.010;8.946;2023-05-23T06:39:30;97085.88;;;20.48;78.55
19596;BME280;9945;46.010;8.946;2023-05-23T06:41:57;97087.22;;;20.63;78.92
19596;BME280;9945;46.010;8.946;2023-05-23T06:44:24;97086.56;;;20.68;79.47
19596;BME280;9945;46.010;8.946;2023-05-23T06:46:51;97093.66;;;20.81;78.15
19596;BME280;9945;46.010;8.946;2023-05-23T06:49:22;97090.66;;;20.95;78.41
19596;BME280;9945;46.010;8.946;2023-05-23T06:51:48;97082.97;;;21.12;78.04
19596;BME280;9945;46.010;8.946;2023-05-23T06:54:15;97092.56;;;21.20;75.90
19596;BME280;9945;46.010;8.946;2023-05-23T06:56:44;97088.22;;;20.94;76.57
19596;BME280;9945;46.010;8.946;2023-05-23T06:59:10;97087.75;;;21.03;78.33
19596;BME280;9945;46.010;8.946;2023-05-23T07:01:37;97080.66;;;21.22;77.60
19596;BME280;9945;46.010;8.946;2023-05-23T07:04:04;97084.31;;;21.46;75.73
19596;BME280;9945;46.010;8.946;2023-05-23T07:06:31;97091.97;;;21.42;75.87
19596;BME280;9945;46.010;8.946;2023-05-23T07:09:00;97093.84;;;21.60;75.78
19596;BME280;9945;46.010;8.946;2023-05-23T07:11:26;97083.66;;;21.32;76.53
19596;BME280;9945;46.010;8.946;2023-05-23T07:13:55;97087.97;;;21.51;75.35
19596;BME280;9945;46.010;8.946;2023-05-23T07:16:21;97085.31;;;21.70;73.64
19596;BME280;9945;46.010;8.946;2023-05-23T07:18:48;97085.78;;;21.85;74.27
19596;BME280;9945;46.010;8.946;2023-05-23T07:21:15;97086.41;;;21.62;73.71
19596;BME280;9945;46.010;8.946;2023-05-23T07:23:42;97090.16;;;21.36;74.42
19596;BME280;9945;46.010;8.946;2023-05-23T07:26:09;97085.09;;;21.71;73.91
19596;BME280;9945;46.010;8.946;2023-05-23T07:28:36;97079.66;;;21.41;74.15
19596;BME280;9945;46.010;8.946;2023-05-23T07:31:04;97077.19;;;21.22;77.08
19596;BME280;9945;46.010;8.946;2023-05-23T07:33:32;97079.88;;;21.15;77.43
19596;BME280;9945;46.010;8.946;2023-05-23T07:35:59;97076.91;;;21.30;75.28
19596;BME280;9945;46.010;8.946;2023-05-23T07:38:26;97079.38;;;21.49;74.51
19596;BME280;9945;46.010;8.946;2023-05-23T07:40:53;97078.00;;;21.65;72.12
19596;BME280;9945;46.010;8.946;2023-05-23T07:43:20;97075.47;;;21.70;72.87
19596;BME280;9945;46.010;8.946;2023-05-23T07:45:46;97076.50;;;21.87;72.33
19596;BME280;9945;46.010;8.946;2023-05-23T07:48:14;97075.09;;;22.03;70.64
19596;BME280;9945;46.010;8.946;2023-05-23T07:50:41;97072.81;;;21.88;71.54
19596;BME280;9945;46.010;8.946;2023-05-23T07:53:08;97063.56;;;21.91;71.05
19596;BME280;9945;46.010;8.946;2023-05-23T07:55:35;97073.19;;;22.10;71.06
19596;BME280;9945;46.010;8.946;2023-05-23T07:58:02;97064.56;;;22.26;70.40
19596;BME280;9945;46.010;8.946;2023-05-23T08:00:29;97059.97;;;22.34;70.08
19596;BME280;9945;46.010;8.946;2023-05-23T08:02:56;97062.69;;;22.45;69.83
19596;BME280;9945;46.010;8.946;2023-05-23T08:05:24;97067.00;;;22.58;69.00
19596;BME280;9945;46.010;8.946;2023-05-23T08:07:51;97055.78;;;22.68;69.21
19596;BME280;9945;46.010;8.946;2023-05-23T08:10:19;97056.94;;;22.72;69.00
19596;BME280;9945;46.010;8.946;2023-05-23T08:12:46;97050.25;;;22.81;69.05
19596;BME280;9945;46.010;8.946;2023-05-23T08:15:13;97054.44;;;22.77;68.80
19596;BME280;9945;46.010;8.946;2023-05-23T08:17:40;97045.59;;;22.46;69.06
19596;BME280;9945;46.010;8.946;2023-05-23T08:20:08;97048.69;;;22.61;69.04
19596;BME280;9945;46.010;8.946;2023-05-23T08:22:37;97051.06;;;22.81;67.69
19596;BME280;9945;46.010;8.946;2023-05-23T08:25:05;97042.28;;;22.92;67.36
19596;BME280;9945;46.010;8.946;2023-05-23T08:27:32;97038.25;;;23.13;68.31
19596;BME280;9945;46.010;8.946;2023-05-23T08:30:00;97046.25;;;23.25;67.47
19596;BME280;9945;46.010;8.946;2023-05-23T08:32:27;97043.44;;;23.31;65.81
19596;BME280;9945;46.010;8.946;2023-05-23T08:34:54;97051.25;;;23.10;66.15
19596;BME280;9945;46.010;8.946;2023-05-23T08:37:21;97045.91;;;23.33;67.24
19596;BME280;9945;46.010;8.946;2023-05-23T08:39:49;97044.53;;;23.30;65.69
19596;BME280;9945;46.010;8.946;2023-05-23T08:42:16;97035.56;;;23.13;66.56
19596;BME280;9945;46.010;8.946;2023-05-23T08:44:43;97046.59;;;23.40;66.18
19596;BME280;9945;46.010;8.946;2023-05-23T08:47:11;97039.88;;;23.61;65.55
19596;BME280;9945;46.010;8.946;2023-05-23T08:49:42;97035.00;;;23.58;63.51
19596;BME280;9945;46.010;8.946;2023-05-23T08:52:11;97035.22;;;23.56;63.77
19596;BME280;9945;46.010;8.946;2023-05-23T08:54:38;97037.28;;;23.77;63.72
19596;BME280;9945;46.010;8.946;2023-05-23T08:57:07;97037.59;;;23.93;63.35
19596;BME280;9945;46.010;8.946;2023-05-23T08:59:35;97037.94;;;23.96;63.29
19596;BME280;9945;46.010;8.946;2023-05-23T09:02:02;97034.22;;;23.97;61.79
19596;BME280;9945;46.010;8.946;2023-05-23T09:04:33;97034.69;;;23.94;62.35
19596;BME280;9945;46.010;8.946;2023-05-23T09:07:01;97038.78;;;23.73;62.54
19596;BME280;9945;46.010;8.946;2023-05-23T09:09:28;97044.03;;;23.80;63.97
19596;BME280;9945;46.010;8.946;2023-05-23T09:11:56;97047.38;;;23.87;63.29
19596;BME280;9945;46.010;8.946;2023-05-23T09:14:26;97036.56;;;23.82;63.69
19596;BME280;9945;46.010;8.946;2023-05-23T09:16:59;97041.28;;;24.03;62.39
19596;BME280;9945;46.010;8.946;2023-05-23T09:19:27;97039.16;;;24.17;62.74
19596;BME280;9945;46.010;8.946;2023-05-23T09:21:54;97036.69;;;24.27;61.04
19596;BME280;9945;46.010;8.946;2023-05-23T09:24:21;97035.41;;;24.30;60.44
19596;BME280;9945;46.010;8.946;2023-05-23T09:26:48;97037.56;;;24.44;60.45
19596;BME280;9945;46.010;8.946;2023-05-23T09:29:19;97034.88;;;24.44;58.56
19596;BME280;9945;46.010;8.946;2023-05-23T09:31:47;97027.59;;;24.57;60.24
19596;BME280;9945;46.010;8.946;2023-05-23T09:34:14;97030.16;;;24.80;57.35
19596;BME280;9945;46.010;8.946;2023-05-23T09:36:41;97025.66;;;24.69;56.24
19596;BME280;9945;46.010;8.946;2023-05-23T09:39:11;97024.56;;;24.81;57.18
19596;BME280;9945;46.010;8.946;2023-05-23T09:41:38;97021.13;;;24.86;55.77
19596;BME280;9945;46.010;8.946;2023-05-23T09:44:07;97014.69;;;24.99;55.02
19596;BME280;9945;46.010;8.946;2023-05-23T09:46:35;97018.34;;;25.09;54.04
19596;BME280;9945;46.010;8.946;2023-05-23T09:49:13;97016.41;;;25.26;54.16
19596;BME280;9945;46.010;8.946;2023-05-23T09:51:41;97012.84;;;25.38;52.43
19596;BME280;9945;46.010;8.946;2023-05-23T09:54:08;97010.34;;;25.53;51.99
19596;BME280;9945;46.010;8.946;2023-05-23T09:56:39;97009.81;;;25.51;51.03
19596;BME280;9945;46.010;8.946;2023-05-23T09:59:11;97001.81;;;25.34;50.91
19596;BME280;9945;46.010;8.946;2023-05-23T10:01:40;97004.91;;;25.65;50.96
19596;BME280;9945;46.010;8.946;2023-05-23T10:04:09;97003.38;;;25.69;50.89
19596;BME280;9945;46.010;8.946;2023-05-23T10:06:40;97005.25;;;25.90;51.73
19596;BME280;9945;46.010;8.946;2023-05-23T10:09:12;96999.31;;;25.88;50.96
19596;BME280;9945;46.010;8.946;2023-05-23T10:12:21;96999.66;;;25.96;51.46
19596;BME280;9945;46.010;8.946;2023-05-23T10:15:03;96997.91;;;26.07;50.84
19596;BME280;9945;46.010;8.946;2023-05-23T10:17:35;96989.75;;;25.97;50.22
19596;BME280;9945;46.010;8.946;2023-05-23T10:20:10;96985.63;;;25.89;50.38
19596;BME280;9945;46.010;8.946;2023-05-23T10:22:38;96990.31;;;25.99;49.50
19596;BME280;9945;46.010;8.946;2023-05-23T10:25:06;96989.38;;;26.10;49.59
19596;BME280;9945;46.010;8.946;2023-05-23T10:27:34;96990.16;;;26.32;49.19
19596;BME280;9945;46.010;8.946;2023-05-23T10:30:02;96979.53;;;26.21;49.54
19596;BME280;9945;46.010;8.946;2023-05-23T10:32:30;96975.97;;;26.37;50.27
19596;BME280;9945;46.010;8.946;2023-05-23T10:35:02;96980.97;;;26.55;50.14
19596;BME280;9945;46.010;8.946;2023-05-23T10:37:36;96969.00;;;26.68;48.12
19596;BME280;9945;46.010;8.946;2023-05-23T10:40:11;96970.41;;;26.75;48.24
19596;BME280;9945;46.010;8.946;2023-05-23T10:42:46;96975.56;;;26.82;46.81
19596;BME280;9945;46.010;8.946;2023-05-23T10:45:16;96965.94;;;26.86;47.63
19596;BME280;9945;46.010;8.946;2023-05-23T10:47:45;96961.25;;;27.03;46.21
19596;BME280;9945;46.010;8.946;2023-05-23T10:50:12;96960.75;;;27.11;47.21
19596;BME280;9945;46.010;8.946;2023-05-23T10:52:41;96963.84;;;27.30;45.63
19596;BME280;9945;46.010;8.946;2023-05-23T10:55:19;96964.34;;;27.27;46.69
19596;BME280;9945;46.010;8.946;2023-05-23T10:58:10;96951.75;;;27.38;45.88
19596;BME280;9945;46.010;8.946;2023-05-23T11:00:37;96955.59;;;27.52;44.74
19596;BME280;9945;46.010;8.946;2023-05-23T11:03:05;96949.44;;;27.57;43.82
19596;BME280;9945;46.010;8.946;2023-05-23T11:05:33;96948.41;;;27.63;43.22
19596;BME280;9945;46.010;8.946;2023-05-23T11:08:08;96957.88;;;27.75;43.21
19596;BME280;9945;46.010;8.946;2023-05-23T11:10:57;96946.06;;;27.81;41.34
19596;BME280;9945;46.010;8.946;2023-05-23T11:13:26;96952.72;;;27.69;41.01
19596;BME280;9945;46.010;8.946;2023-05-23T11:16:29;96943.34;;;27.71;40.72
19596;BME280;9945;46.010;8.946;2023-05-23T11:19:22;96939.31;;;27.79;40.33
19596;BME280;9945;46.010;8.946;2023-05-23T11:21:53;96934.78;;;27.90;41.59
19596;BME280;9945;46.010;8.946;2023-05-23T11:24:22;96929.44;;;28.05;40.03
19596;BME280;9945;46.010;8.946;2023-05-23T11:26:52;96934.25;;;28.03;38.77
19596;BME280;9945;46.010;8.946;2023-05-23T11:29:21;96927.81;;;28.09;39.96
19596;BME280;9945;46.010;8.946;2023-05-23T11:31:48;96930.31;;;28.31;39.60
19596;BME280;9945;46.010;8.946;2023-05-23T11:34:16;96927.03;;;28.18;39.10
19596;BME280;9945;46.010;8.946;2023-05-23T11:36:44;96925.66;;;28.06;39.86
19596;BME280;9945;46.010;8.946;2023-05-23T11:39:12;96920.09;;;28.33;40.36
19596;BME280;9945;46.010;8.946;2023-05-23T11:41:42;96919.53;;;28.46;40.79
19596;BME280;9945;46.010;8.946;2023-05-23T11:44:12;96922.78;;;28.63;40.26
19596;BME280;9945;46.010;8.946;2023-05-23T11:46:39;96916.84;;;28.36;40.49
19596;BME280;9945;46.010;8.946;2023-05-23T11:49:12;96914.66;;;28.28;39.20
19596;BME280;9945;46.010;8.946;2023-05-23T11:51:39;96915.50;;;28.48;38.93
19596;BME280;9945;46.010;8.946;2023-05-23T11:54:06;96917.09;;;28.19;39.90
19596;BME280;9945;46.010;8.946;2023-05-23T11:56:38;96907.38;;;28.18;39.32
19596;BME280;9945;46.010;8.946;2023-05-23T11:59:08;96908.22;;;28.39;40.88
19596;BME280;9945;46.010;8.946;2023-05-23T12:01:36;96900.94;;;28.44;40.53
19596;BME280;9945;46.010;8.946;2023-05-23T12:04:08;96898.78;;;28.61;40.16
19596;BME280;9945;46.010;8.946;2023-05-23T12:06:38;96890.72;;;28.46;39.92
19596;BME280;9945;46.010;8.946;2023-05-23T12:09:05;96900.38;;;28.17;39.50
19596;BME280;9945;46.010;8.946;2023-05-23T12:11:32;96897.44;;;28.34;39.61
19596;BME280;9945;46.010;8.946;2023-05-23T12:13:59;96893.66;;;28.35;39.09
19596;BME280;9945;46.010;8.946;2023-05-23T12:16:32;96899.88;;;28.30;39.84
19596;BME280;9945;46.010;8.946;2023-05-23T12:19:00;96899.34;;;28.38;39.34
19596;BME280;9945;46.010;8.946;2023-05-23T12:21:40;96893.13;;;28.43;40.18
19596;BME280;9945;46.010;8.946;2023-05-23T12:24:14;96899.31;;;28.53;39.52
19596;BME280;9945;46.010;8.946;2023-05-23T12:26:49;96888.53;;;28.43;39.35
19596;BME280;9945;46.010;8.946;2023-05-23T12:29:18;96881.00;;;28.35;39.08
19596;BME280;9945;46.010;8.946;2023-05-23T12:31:49;96890.19;;;28.49;39.62
19596;BME280;9945;46.010;8.946;2023-05-23T12:34:16;96883.69;;;28.55;37.81
19596;BME280;9945;46.010;8.946;2023-05-23T12:36:45;96885.84;;;28.64;38.66
19596;BME280;9945;46.010;8.946;2023-05-23T12:39:14;96873.19;;;28.54;37.78
19596;BME280;9945;46.010;8.946;2023-05-23T12:41:41;96883.41;;;28.67;39.27
19596;BME280;9945;46.010;8.946;2023-05-23T12:44:09;96881.25;;;28.84;39.89
19596;BME280;9945;46.010;8.946;2023-05-23T12:46:36;96878.56;;;28.89;39.43
19596;BME280;9945;46.010;8.946;2023-05-23T12:49:04;96879.66;;;28.83;38.64
19596;BME280;9945;46.010;8.946;2023-05-23T12:51:31;96859.94;;;28.93;37.52
19596;BME280;9945;46.010;8.946;2023-05-23T12:53:58;96869.09;;;28.97;37.94
19596;BME280;9945;46.010;8.946;2023-05-23T12:56:25;96872.59;;;28.97;38.31
19596;BME280;9945;46.010;8.946;2023-05-23T12:58:52;96865.31;;;28.93;36.45
19596;BME280;9945;46.010;8.946;2023-05-23T13:01:19;96866.44;;;28.87;37.02
19596;BME280;9945;46.010;8.946;2023-05-23T13:03:46;96859.41;;;28.71;37.98
19596;BME280;9945;46.010;8.946;2023-05-23T13:06:15;96859.16;;;28.82;38.67
19596;BME280;9945;46.010;8.946;2023-05-23T13:08:41;96860.78;;;28.83;38.49
19596;BME280;9945;46.010;8.946;2023-05-23T13:11:08;96865.31;;;28.98;37.72
19596;BME280;9945;46.010;8.946;2023-05-23T13:13:35;96858.59;;;28.95;38.36
19596;BME280;9945;46.010;8.946;2023-05-23T13:16:02;96864.28;;;28.79;37.09